createdAt,value
2023-03-18T00:00:32.992Z,5.20
2023-03-18T00:03:03.562Z,5.10
2023-03-18T00:05:31.328Z,5.20
2023-03-18T00:07:58.319Z,5.10
2023-03-18T00:10:26.501Z,5.10
2023-03-18T00:12:56.292Z,5.10
2023-03-18T00:15:23.613Z,5.10
2023-03-18T00:17:50.569Z,5.10
2023-03-18T00:20:18.834Z,5.10
2023-03-18T00:22:46.965Z,5.00
2023-03-18T00:25:14.695Z,5.00
2023-03-18T00:27:42.010Z,4.90
2023-03-18T00:30:10.128Z,4.90
2023-03-18T00:32:37.301Z,4.90
2023-03-18T00:35:04.728Z,4.90
2023-03-18T00:37:34.858Z,4.80
2023-03-18T00:40:10.086Z,4.80
2023-03-18T00:42:40.353Z,4.80
2023-03-18T00:45:08.709Z,4.80
2023-03-18T00:47:36.144Z,4.80
2023-03-18T00:50:03.631Z,4.70
2023-03-18T00:52:32.408Z,4.70
2023-03-18T00:55:00.764Z,4.70
2023-03-18T00:57:29.545Z,4.70
2023-03-18T00:59:57.286Z,4.70
2023-03-18T01:02:24.987Z,4.60
2023-03-18T01:04:52.391Z,4.60
2023-03-18T01:07:20.219Z,4.60
2023-03-18T01:09:49.440Z,4.60
2023-03-18T01:12:16.915Z,4.60
2023-03-18T01:14:44.308Z,4.60
2023-03-18T01:17:14.129Z,4.60
2023-03-18T01:19:41.122Z,4.60
2023-03-18T01:22:08.339Z,4.60
2023-03-18T01:24:45.205Z,4.60
2023-03-18T01:27:14.625Z,4.60
2023-03-18T01:29:43.949Z,4.60
2023-03-18T01:32:16.927Z,4.60
2023-03-18T01:34:44.302Z,4.60
2023-03-18T01:37:11.805Z,4.60
2023-03-18T01:39:41.742Z,4.60
2023-03-18T01:42:18.372Z,4.50
2023-03-18T01:44:46.430Z,4.50
2023-03-18T01:47:17.693Z,4.50
2023-03-18T01:49:52.482Z,4.50
2023-03-18T01:52:22.090Z,4.40
2023-03-18T01:54:52.739Z,4.40
2023-03-18T01:57:20.504Z,4.40
2023-03-18T01:59:48.764Z,4.40
2023-03-18T02:02:16.972Z,4.40
2023-03-18T02:05:03.834Z,4.30
2023-03-18T02:07:33.756Z,4.40
2023-03-18T02:10:02.954Z,4.30
2023-03-18T02:12:35.709Z,4.40
2023-03-18T02:15:06.225Z,4.40
2023-03-18T02:17:36.100Z,4.30
2023-03-18T02:20:24.536Z,4.30
2023-03-18T02:22:59.051Z,4.30
2023-03-18T02:25:45.868Z,4.30
2023-03-18T02:28:18.814Z,4.30
2023-03-18T02:30:52.596Z,4.30
2023-03-18T02:33:21.725Z,4.30
2023-03-18T02:35:51.623Z,4.30
2023-03-18T02:38:19.441Z,4.30
2023-03-18T02:40:48.343Z,4.30
2023-03-18T02:43:22.787Z,4.20
2023-03-18T02:45:55.389Z,4.20
2023-03-18T02:48:23.512Z,4.20
2023-03-18T02:50:51.147Z,4.20
2023-03-18T02:53:18.222Z,4.20
2023-03-18T02:55:45.878Z,4.20
2023-03-18T02:58:13.030Z,4.20
2023-03-18T03:00:41.719Z,4.20
2023-03-18T03:03:08.792Z,4.20
2023-03-18T03:05:36.203Z,4.20
2023-03-18T03:08:03.284Z,4.20
2023-03-18T03:10:34.023Z,4.10
2023-03-18T03:13:03.019Z,4.10
2023-03-18T03:15:30.635Z,4.10
2023-03-18T03:18:04.138Z,4.10
2023-03-18T03:20:33.911Z,4.10
2023-03-18T03:23:02.055Z,4.10
2023-03-18T03:25:29.452Z,4.10
2023-03-18T03:27:57.135Z,4.10
2023-03-18T03:30:26.343Z,4.00
2023-03-18T03:32:53.641Z,4.00
2023-03-18T03:35:20.913Z,4.10
2023-03-18T03:37:48.297Z,4.10
2023-03-18T03:40:18.282Z,4.10
2023-03-18T03:42:45.706Z,4.00
2023-03-18T03:45:14.693Z,4.10
2023-03-18T03:47:43.294Z,4.10
2023-03-18T03:50:13.143Z,4.10
2023-03-18T03:52:40.553Z,4.10
2023-03-18T03:55:08.566Z,4.00
2023-03-18T03:57:37.342Z,4.00
2023-03-18T04:00:05.310Z,4.00
2023-03-18T04:02:43.512Z,4.00
2023-03-18T04:05:13.423Z,4.00
2023-03-18T04:07:41.567Z,4.00
2023-03-18T04:10:11.090Z,4.00
2023-03-18T04:12:39.245Z,4.10
2023-03-18T04:15:07.394Z,4.10
2023-03-18T04:17:35.709Z,4.10
2023-03-18T04:20:03.563Z,4.10
2023-03-18T04:22:33.112Z,4.20
2023-03-18T04:25:02.550Z,4.10
2023-03-18T04:27:30.327Z,4.10
2023-03-18T04:30:00.831Z,4.10
2023-03-18T04:32:37.643Z,4.10
2023-03-18T04:35:05.642Z,4.10
2023-03-18T04:37:37.113Z,4.10
2023-03-18T04:40:05.916Z,4.10
2023-03-18T04:42:33.191Z,4.10
2023-03-18T04:45:00.506Z,4.10
2023-03-18T04:47:28.420Z,4.10
2023-03-18T04:49:55.823Z,4.00
2023-03-18T04:52:23.474Z,4.00
2023-03-18T04:54:51.277Z,4.00
2023-03-18T04:57:18.619Z,4.10
2023-03-18T04:59:51.332Z,4.10
2023-03-18T05:02:20.050Z,4.10
2023-03-18T05:04:47.280Z,4.10
2023-03-18T05:07:15.708Z,4.10
2023-03-18T05:09:49.952Z,4.10
2023-03-18T05:12:17.996Z,4.10
2023-03-18T05:14:45.210Z,4.10
2023-03-18T05:17:15.865Z,4.20
2023-03-18T05:19:52.083Z,4.20
2023-03-18T05:22:22.081Z,4.20
2023-03-18T05:24:54.015Z,4.20
2023-03-18T05:27:23.996Z,4.20
2023-03-18T05:29:59.935Z,4.20
2023-03-18T05:32:38.765Z,4.20
2023-03-18T05:35:09.257Z,4.20
2023-03-18T05:37:45.249Z,4.20
2023-03-18T05:40:13.604Z,4.20
2023-03-18T05:42:55.857Z,4.20
2023-03-18T05:45:30.432Z,4.20
2023-03-18T05:47:58.176Z,4.20
2023-03-18T05:50:33.495Z,4.30
2023-03-18T05:53:04.257Z,4.30
2023-03-18T05:55:35.453Z,4.30
2023-03-18T05:58:04.011Z,4.30
2023-03-18T06:00:32.971Z,4.40
2023-03-18T06:03:02.007Z,4.40
2023-03-18T06:05:30.009Z,4.40
2023-03-18T06:07:58.042Z,4.50
2023-03-18T06:10:26.121Z,4.50
2023-03-18T06:12:55.483Z,4.60
2023-03-18T06:15:23.491Z,4.60
2023-03-18T06:17:51.177Z,4.60
2023-03-18T06:20:19.660Z,4.70
2023-03-18T06:22:50.037Z,4.80
2023-03-18T06:25:21.563Z,4.80
2023-03-18T06:27:49.944Z,4.90
2023-03-18T06:30:19.930Z,5.00
2023-03-18T06:32:47.405Z,5.10
2023-03-18T06:35:15.674Z,5.20
2023-03-18T06:37:44.253Z,5.30
2023-03-18T06:40:12.413Z,5.30
2023-03-18T06:42:41.275Z,5.30
2023-03-18T06:45:16.069Z,5.40
2023-03-18T06:47:55.328Z,5.50
2023-03-18T06:50:25.425Z,5.50
2023-03-18T06:52:53.180Z,5.50
2023-03-18T06:55:26.981Z,5.60
2023-03-18T06:57:56.672Z,5.80
2023-03-18T07:00:29.712Z,5.90
2023-03-18T07:02:56.950Z,6.00
2023-03-18T07:05:26.615Z,6.00
2023-03-18T07:07:55.446Z,6.20
2023-03-18T07:10:25.681Z,6.50
2023-03-18T07:12:57.356Z,6.60
2023-03-18T07:15:24.535Z,7.20
2023-03-18T07:17:55.903Z,8.20
2023-03-18T07:20:23.781Z,8.90
2023-03-18T07:22:51.769Z,9.50
2023-03-18T07:25:19.184Z,9.70
2023-03-18T07:27:47.567Z,9.60
2023-03-18T07:30:14.888Z,9.80
2023-03-18T07:32:43.094Z,10.20
2023-03-18T07:35:11.815Z,10.70
2023-03-18T07:37:40.451Z,10.80
2023-03-18T07:40:08.694Z,10.90
2023-03-18T07:42:36.465Z,11.00
2023-03-18T07:45:03.764Z,10.50
2023-03-18T07:47:31.218Z,10.20
2023-03-18T07:49:58.217Z,10.30
2023-03-18T07:52:25.984Z,10.10
2023-03-18T07:54:53.080Z,9.50
2023-03-18T07:57:20.417Z,9.90
2023-03-18T07:59:47.497Z,10.10
2023-03-18T08:02:16.072Z,9.70
2023-03-18T08:04:44.242Z,9.30
2023-03-18T08:07:11.522Z,9.20
2023-03-18T08:09:38.910Z,9.70
2023-03-18T08:12:06.195Z,10.10
2023-03-18T08:14:33.716Z,10.30
2023-03-18T08:17:01.726Z,10.30
2023-03-18T08:19:28.853Z,9.90
2023-03-18T08:21:55.901Z,9.70
2023-03-18T08:24:22.912Z,9.30
2023-03-18T08:26:50.233Z,9.10
2023-03-18T08:29:17.167Z,8.90
2023-03-18T08:31:44.138Z,8.60
2023-03-18T08:34:11.227Z,8.40
2023-03-18T08:36:38.329Z,8.50
2023-03-18T08:39:06.238Z,8.50
2023-03-18T08:41:33.700Z,8.50
2023-03-18T08:44:02.087Z,8.40
2023-03-18T08:46:31.647Z,8.30
2023-03-18T08:48:59.914Z,8.40
2023-03-18T08:51:27.062Z,8.60
2023-03-18T08:53:54.471Z,8.80
2023-03-18T08:56:21.669Z,8.80
2023-03-18T08:58:48.789Z,9.00
2023-03-18T09:01:16.789Z,9.20
2023-03-18T09:03:44.919Z,9.50
2023-03-18T09:06:14.358Z,9.50
2023-03-18T09:08:42.660Z,9.60
2023-03-18T09:11:09.857Z,9.60
2023-03-18T09:13:39.242Z,9.80
2023-03-18T09:16:07.403Z,9.90
2023-03-18T09:18:35.478Z,10.00
2023-03-18T09:21:03.338Z,10.00
2023-03-18T09:23:30.621Z,10.20
2023-03-18T09:25:57.631Z,10.40
2023-03-18T09:28:25.264Z,10.50
2023-03-18T09:30:52.376Z,10.80
2023-03-18T09:35:48.305Z,11.40
2023-03-18T09:38:17.768Z,11.30
2023-03-18T09:40:52.130Z,11.00
2023-03-18T09:43:37.907Z,11.10
2023-03-18T09:46:18.711Z,10.90
2023-03-18T09:48:48.980Z,11.10
2023-03-18T09:51:19.375Z,11.20
2023-03-18T09:53:51.719Z,11.20
2023-03-18T09:56:24.043Z,10.80
2023-03-18T09:58:58.457Z,10.50
2023-03-18T10:01:27.224Z,10.20
2023-03-18T10:04:01.102Z,10.10
2023-03-18T10:06:28.901Z,10.30
2023-03-18T10:09:06.041Z,10.20
2023-03-18T10:11:38.035Z,10.20
2023-03-18T10:14:24.100Z,10.50
2023-03-18T10:16:54.077Z,10.50
2023-03-18T10:19:21.496Z,11.10
2023-03-18T10:21:54.769Z,11.30
2023-03-18T10:24:22.025Z,11.00
2023-03-18T10:26:50.424Z,11.20
2023-03-18T10:29:23.696Z,11.30
2023-03-18T10:31:50.971Z,11.20
2023-03-18T10:34:27.402Z,11.00
2023-03-18T10:37:03.470Z,11.00
2023-03-18T10:39:31.336Z,10.90
2023-03-18T10:41:59.038Z,11.10
2023-03-18T10:44:38.568Z,11.20
2023-03-18T10:47:08.357Z,11.50
2023-03-18T10:49:37.137Z,11.50
2023-03-18T10:52:05.980Z,11.40
2023-03-18T10:54:36.873Z,11.60
2023-03-18T10:57:03.994Z,11.70
2023-03-18T10:59:31.162Z,11.30
2023-03-18T11:02:05.681Z,11.20
2023-03-18T11:04:38.538Z,11.20
2023-03-18T11:07:07.610Z,11.00
2023-03-18T11:09:36.547Z,11.00
2023-03-18T11:12:08.614Z,11.40
2023-03-18T11:14:37.632Z,11.80
2023-03-18T11:17:05.701Z,11.50
2023-03-18T11:19:41.488Z,11.00
2023-03-18T11:22:25.078Z,10.80
2023-03-18T11:25:02.245Z,10.80
2023-03-18T11:27:35.542Z,10.70
2023-03-18T11:30:14.739Z,10.70
2023-03-18T11:32:53.981Z,10.80
2023-03-18T11:35:26.694Z,10.80
2023-03-18T11:37:54.254Z,10.80
2023-03-18T11:40:25.896Z,10.90
2023-03-18T11:43:00.694Z,11.20
2023-03-18T11:45:32.097Z,11.30
2023-03-18T11:47:59.491Z,11.20
2023-03-18T11:50:32.104Z,11.00
2023-03-18T11:53:09.797Z,11.10
2023-03-18T11:55:43.729Z,11.40
2023-03-18T11:58:20.682Z,11.20
2023-03-18T12:01:11.320Z,11.50
2023-03-18T12:03:50.930Z,12.00
2023-03-18T12:06:21.697Z,11.70
2023-03-18T12:08:54.862Z,11.40
2023-03-18T12:11:27.147Z,11.30
2023-03-18T12:13:55.628Z,11.10
2023-03-18T12:16:40.550Z,11.10
2023-03-18T12:19:14.421Z,11.30
2023-03-18T12:21:46.753Z,11.50
2023-03-18T12:24:32.362Z,11.40
2023-03-18T12:26:59.817Z,11.60
2023-03-18T12:29:42.560Z,11.80
2023-03-18T12:32:19.481Z,11.50
2023-03-18T12:34:58.616Z,11.50
2023-03-18T12:37:41.679Z,11.60
2023-03-18T12:40:29.377Z,11.40
2023-03-18T12:43:16.202Z,11.10
2023-03-18T12:45:45.387Z,10.80
2023-03-18T12:48:14.854Z,10.70
2023-03-18T12:50:42.929Z,10.60
2023-03-18T12:53:27.207Z,10.50
2023-03-18T12:55:57.042Z,10.40
2023-03-18T12:58:47.627Z,10.30
2023-03-18T13:01:28.541Z,10.30
2023-03-18T13:03:59.694Z,10.20
2023-03-18T13:06:31.967Z,10.30
2023-03-18T13:09:04.916Z,10.30
2023-03-18T13:11:32.094Z,10.30
2023-03-18T13:14:01.689Z,10.30
2023-03-18T13:16:29.999Z,10.20
2023-03-18T13:18:57.902Z,10.20
2023-03-18T13:21:28.055Z,10.10
2023-03-18T13:23:58.471Z,10.10
2023-03-18T13:26:34.417Z,10.10
2023-03-18T13:29:21.603Z,10.30
2023-03-18T13:31:53.567Z,10.30
2023-03-18T13:34:30.067Z,10.40
2023-03-18T13:37:15.787Z,10.40
2023-03-18T13:39:56.376Z,10.40
2023-03-18T13:42:26.249Z,10.20
2023-03-18T13:44:59.827Z,10.30
2023-03-18T13:47:30.040Z,10.20
2023-03-18T13:50:01.275Z,10.30
2023-03-18T13:52:42.864Z,10.20
2023-03-18T13:55:34.427Z,10.20
2023-03-18T13:58:05.119Z,10.20
2023-03-18T14:00:38.493Z,10.20
2023-03-18T14:03:17.769Z,10.20
2023-03-18T14:05:46.332Z,10.20
2023-03-18T14:08:32.764Z,10.20
2023-03-18T14:11:19.922Z,10.30
2023-03-18T14:13:52.010Z,10.20
2023-03-18T14:16:23.292Z,10.20
2023-03-18T14:18:57.875Z,10.10
2023-03-18T14:21:28.133Z,10.10
2023-03-18T14:24:16.403Z,10.10
2023-03-18T14:26:58.736Z,10.00
2023-03-18T14:29:35.272Z,10.00
2023-03-18T14:32:08.462Z,9.90
2023-03-18T14:34:35.994Z,10.00
2023-03-18T14:37:16.239Z,9.90
2023-03-18T14:39:44.416Z,9.80
2023-03-18T14:42:27.791Z,9.80
2023-03-18T14:44:56.129Z,9.80
2023-03-18T14:47:38.561Z,9.80
2023-03-18T14:50:27.749Z,9.80
2023-03-18T14:52:58.553Z,9.80
2023-03-18T14:55:34.873Z,9.80
2023-03-18T14:58:03.689Z,9.80
2023-03-18T15:00:33.602Z,9.70
2023-03-18T15:03:05.039Z,9.70
2023-03-18T15:05:35.273Z,9.80
2023-03-18T15:08:03.041Z,9.80
2023-03-18T15:10:31.658Z,9.80
2023-03-18T15:13:07.834Z,9.70
2023-03-18T15:15:35.985Z,9.60
2023-03-18T15:18:20.878Z,9.60
2023-03-18T15:20:51.490Z,9.50
2023-03-18T15:23:22.582Z,9.60
2023-03-18T15:25:49.714Z,9.50
2023-03-18T15:28:23.790Z,9.50
2023-03-18T15:31:00.705Z,9.50
2023-03-18T15:33:36.129Z,9.50
2023-03-18T15:36:04.896Z,9.40
2023-03-18T15:38:33.695Z,9.40
2023-03-18T15:41:02.978Z,9.30
2023-03-18T15:43:35.606Z,9.30
2023-03-18T15:46:07.984Z,9.30
2023-03-18T15:48:35.582Z,9.30
2023-03-18T15:51:04.415Z,9.30
2023-03-18T15:53:39.922Z,9.30
2023-03-18T15:56:13.528Z,9.20
2023-03-18T15:58:44.777Z,9.20
2023-03-18T16:01:17.012Z,9.20
2023-03-18T16:03:46.715Z,9.20
2023-03-18T16:06:14.492Z,9.20
2023-03-18T16:08:42.028Z,9.10
2023-03-18T16:11:10.063Z,9.10
2023-03-18T16:13:37.445Z,9.10
2023-03-18T16:16:05.170Z,9.00
2023-03-18T16:18:32.777Z,9.00
2023-03-18T16:21:00.123Z,9.00
2023-03-18T16:23:27.333Z,9.00
2023-03-18T16:25:55.615Z,9.00
2023-03-18T16:28:26.457Z,8.90
2023-03-18T16:30:55.965Z,8.90
2023-03-18T16:33:23.678Z,8.90
2023-03-18T16:36:01.610Z,8.90
2023-03-18T16:38:30.147Z,8.90
2023-03-18T16:40:57.737Z,8.90
2023-03-18T16:43:27.459Z,8.90
2023-03-18T16:45:57.384Z,8.90
2023-03-18T16:48:26.255Z,8.90
2023-03-18T16:50:56.545Z,8.90
2023-03-18T16:53:30.549Z,8.80
2023-03-18T16:56:00.689Z,8.80
2023-03-18T16:58:33.850Z,8.80
2023-03-18T17:01:01.694Z,8.80
2023-03-18T17:03:31.697Z,8.80
2023-03-18T17:05:59.158Z,8.80
2023-03-18T17:08:26.267Z,8.80
2023-03-18T17:10:57.062Z,8.70
2023-03-18T17:13:26.024Z,8.70
2023-03-18T17:15:53.188Z,8.70
2023-03-18T17:18:21.715Z,8.70
2023-03-18T17:20:49.338Z,8.70
2023-03-18T17:23:23.032Z,8.70
2023-03-18T17:25:53.744Z,8.70
2023-03-18T17:28:40.352Z,8.70
2023-03-18T17:31:07.727Z,8.70
2023-03-18T17:33:35.690Z,8.70
2023-03-18T17:36:03.206Z,8.70
2023-03-18T17:38:35.289Z,8.70
2023-03-18T17:41:04.114Z,8.70
2023-03-18T17:43:31.122Z,8.60
2023-03-18T17:45:58.806Z,8.60
2023-03-18T17:48:27.102Z,8.60
2023-03-18T17:50:58.352Z,8.60
2023-03-18T17:53:30.952Z,8.60
2023-03-18T17:55:58.300Z,8.60
2023-03-18T17:58:27.510Z,8.50
2023-03-18T18:01:00.978Z,8.50
2023-03-18T18:03:29.741Z,8.50
2023-03-18T18:05:57.085Z,8.50
2023-03-18T18:08:25.744Z,8.50
2023-03-18T18:10:54.412Z,8.50
2023-03-18T18:13:22.970Z,8.50
2023-03-18T18:15:51.090Z,8.50
2023-03-18T18:18:25.625Z,8.50
2023-03-18T18:21:04.044Z,8.50
2023-03-18T18:23:32.669Z,8.50
2023-03-18T18:26:00.755Z,8.50
2023-03-18T18:28:35.132Z,8.40
2023-03-18T18:31:03.482Z,8.40
2023-03-18T18:33:32.718Z,8.40
2023-03-18T18:35:59.899Z,8.40
2023-03-18T18:38:27.383Z,8.40
2023-03-18T18:40:55.413Z,8.40
2023-03-18T18:43:22.675Z,8.50
2023-03-18T18:45:50.459Z,8.40
2023-03-18T18:48:18.309Z,8.40
2023-03-18T18:50:45.672Z,8.40
2023-03-18T18:53:17.636Z,8.40
2023-03-18T18:55:47.749Z,8.40
2023-03-18T18:58:18.317Z,8.40
2023-03-18T19:00:48.512Z,8.40
2023-03-18T19:03:16.817Z,8.40
2023-03-18T19:05:44.605Z,8.30
2023-03-18T19:08:28.377Z,8.30
2023-03-18T19:10:57.117Z,8.30
2023-03-18T19:13:34.328Z,8.30
2023-03-18T19:16:05.810Z,8.30
2023-03-18T19:18:35.782Z,8.30
2023-03-18T19:21:03.029Z,8.30
2023-03-18T19:23:30.932Z,8.30
2023-03-18T19:25:59.664Z,8.30
2023-03-18T19:28:55.073Z,8.30
2023-03-18T19:31:26.638Z,8.30
2023-03-18T19:33:54.025Z,8.20
2023-03-18T19:36:26.261Z,8.20
2023-03-18T19:38:54.130Z,8.20
2023-03-18T19:41:21.756Z,8.20
2023-03-18T19:43:48.907Z,8.20
2023-03-18T19:46:18.409Z,8.20
2023-03-18T19:48:45.673Z,8.20
2023-03-18T19:51:16.922Z,8.20
2023-03-18T19:53:45.184Z,8.20
2023-03-18T19:56:25.530Z,8.10
2023-03-18T19:58:53.433Z,8.10
2023-03-18T20:01:22.207Z,8.10
2023-03-18T20:03:50.077Z,8.10
2023-03-18T20:06:18.052Z,8.10
2023-03-18T20:08:45.047Z,8.10
2023-03-18T20:11:13.482Z,8.10
2023-03-18T20:13:41.093Z,8.10
2023-03-18T20:16:13.101Z,8.00
2023-03-18T20:18:40.492Z,8.00
2023-03-18T20:21:14.154Z,8.00
2023-03-18T20:23:41.519Z,8.00
2023-03-18T20:26:08.781Z,8.00
2023-03-18T20:28:36.373Z,8.00
2023-03-18T20:31:04.135Z,8.00
2023-03-18T20:33:32.504Z,7.90
2023-03-18T20:36:00.014Z,7.90
2023-03-18T20:38:30.154Z,7.90
2023-03-18T20:40:57.648Z,7.90
2023-03-18T20:43:25.872Z,7.90
2023-03-18T20:45:53.370Z,7.90
2023-03-18T20:48:21.075Z,7.80
2023-03-18T20:50:49.290Z,7.90
2023-03-18T20:53:17.628Z,7.80
2023-03-18T20:55:46.911Z,7.70
2023-03-18T20:58:15.248Z,7.70
2023-03-18T21:00:42.765Z,7.70
2023-03-18T21:03:29.524Z,7.70
2023-03-18T21:05:57.977Z,7.70
2023-03-18T21:08:26.235Z,7.70
2023-03-18T21:10:54.934Z,7.80
2023-03-18T21:13:22.127Z,7.80
2023-03-18T21:15:49.150Z,7.80
2023-03-18T21:18:16.188Z,7.80
2023-03-18T21:20:43.727Z,7.80
2023-03-18T21:23:24.224Z,7.80
2023-03-18T21:25:52.377Z,7.70
2023-03-18T21:28:20.299Z,7.70
2023-03-18T21:30:48.891Z,7.80
2023-03-18T21:33:18.934Z,7.70
2023-03-18T21:35:46.286Z,7.70
2023-03-18T21:38:13.268Z,7.70
2023-03-18T21:40:40.359Z,7.70
2023-03-18T21:43:37.244Z,7.70
2023-03-18T21:46:06.760Z,7.60
2023-03-18T21:48:33.822Z,7.70
2023-03-18T21:51:01.757Z,7.60
2023-03-18T21:53:28.826Z,7.60
2023-03-18T21:55:56.322Z,7.60
2023-03-18T21:58:27.098Z,7.60
2023-03-18T22:00:55.818Z,7.60
2023-03-18T22:03:23.730Z,7.50
2023-03-18T22:05:54.709Z,7.50
2023-03-18T22:08:22.177Z,7.50
2023-03-18T22:10:50.669Z,7.50
2023-03-18T22:13:24.918Z,7.50
2023-03-18T22:15:53.112Z,7.50
2023-03-18T22:18:20.699Z,7.40
2023-03-18T22:20:50.990Z,7.40
2023-03-18T22:23:19.912Z,7.50
2023-03-18T22:25:52.196Z,7.40
2023-03-18T22:28:19.405Z,7.40
2023-03-18T22:30:48.413Z,7.40
2023-03-18T22:33:17.521Z,7.40
2023-03-18T22:35:44.800Z,7.40
2023-03-18T22:38:13.980Z,7.40
2023-03-18T22:40:42.679Z,7.40
2023-03-18T22:43:40.926Z,7.40
2023-03-18T22:46:10.254Z,7.40
2023-03-18T22:48:37.351Z,7.40
2023-03-18T22:51:05.080Z,7.40
2023-03-18T22:53:34.309Z,7.40
2023-03-18T22:56:04.499Z,7.40
2023-03-18T22:58:31.623Z,7.40
2023-03-18T23:00:58.970Z,7.30
2023-03-18T23:03:28.798Z,7.30
2023-03-18T23:05:57.203Z,7.30
2023-03-18T23:08:26.320Z,7.30
2023-03-18T23:10:56.573Z,7.30
2023-03-18T23:13:31.356Z,7.30
2023-03-18T23:15:58.654Z,7.30
2023-03-18T23:18:25.857Z,7.30
2023-03-18T23:20:53.060Z,7.30
2023-03-18T23:23:21.801Z,7.20
2023-03-18T23:25:50.026Z,7.20
2023-03-18T23:28:17.496Z,7.30
2023-03-18T23:30:47.179Z,7.30
2023-03-18T23:33:14.773Z,7.30
2023-03-18T23:35:44.211Z,7.30
2023-03-18T23:38:11.604Z,7.30
2023-03-18T23:40:38.925Z,7.30
2023-03-18T23:43:07.197Z,7.20
2023-03-18T23:45:35.748Z,7.20
2023-03-18T23:48:04.156Z,7.20
2023-03-18T23:50:31.515Z,7.20
2023-03-18T23:53:01.118Z,7.20
2023-03-18T23:55:36.418Z,7.20
2023-03-18T23:58:03.992Z,7.20
